createdAt,value
2022-11-26T00:01:27.911Z,30.23
2022-11-26T00:03:55.416Z,31.92
2022-11-26T00:06:31.576Z,28.90
2022-11-26T00:09:02.339Z,31.33
2022-11-26T00:11:29.388Z,29.85
2022-11-26T00:13:56.692Z,25.38
2022-11-26T00:16:23.943Z,24.90
2022-11-26T00:18:51.274Z,27.88
2022-11-26T00:21:24.998Z,27.33
2022-11-26T00:23:53.895Z,30.98
2022-11-26T00:26:23.045Z,27.38
2022-11-26T00:28:57.227Z,27.45
2022-11-26T00:31:24.823Z,28.98
2022-11-26T00:33:52.573Z,27.88
2022-11-26T00:36:21.381Z,28.00
2022-11-26T00:39:11.344Z,24.95
2022-11-26T00:41:39.809Z,28.50
2022-11-26T00:44:21.448Z,28.80
2022-11-26T00:46:48.941Z,28.88
2022-11-26T00:49:19.254Z,27.80
2022-11-26T00:51:46.903Z,29.42
2022-11-26T00:54:17.301Z,24.35
2022-11-26T00:56:44.498Z,27.73
2022-11-26T00:59:23.046Z,29.98
2022-11-26T01:01:52.613Z,29.08
2022-11-26T01:04:19.970Z,30.10
2022-11-26T01:06:47.083Z,24.13
2022-11-26T01:09:19.649Z,30.10
2022-11-26T01:11:50.953Z,24.73
2022-11-26T01:14:23.674Z,25.70
2022-11-26T01:16:56.881Z,26.20
2022-11-26T01:19:26.724Z,23.35
2022-11-26T01:21:56.174Z,24.83
2022-11-26T01:24:23.503Z,25.67
2022-11-26T01:26:50.664Z,23.27
2022-11-26T01:29:20.143Z,22.88
2022-11-26T01:31:47.587Z,26.50
2022-11-26T01:34:17.417Z,23.27
2022-11-26T01:36:44.436Z,22.80
2022-11-26T01:39:20.259Z,23.52
2022-11-26T01:42:05.181Z,23.20
2022-11-26T01:44:35.903Z,21.80
2022-11-26T01:47:23.745Z,21.75
2022-11-26T01:50:28.456Z,21.15
2022-11-26T01:53:04.481Z,22.75
2022-11-26T01:55:46.649Z,22.45
2022-11-26T01:58:18.681Z,19.55
2022-11-26T02:00:48.562Z,20.55
2022-11-26T02:03:15.806Z,21.83
2022-11-26T02:05:52.126Z,19.83
2022-11-26T02:08:25.044Z,19.83
2022-11-26T02:10:52.668Z,22.73
2022-11-26T02:13:20.445Z,19.33
2022-11-26T02:16:11.895Z,22.30
2022-11-26T02:18:43.767Z,19.10
2022-11-26T02:21:20.785Z,18.30
2022-11-26T02:23:56.497Z,22.20
2022-11-26T02:26:37.894Z,22.35
2022-11-26T02:29:29.474Z,18.23
2022-11-26T02:32:14.761Z,19.38
2022-11-26T02:35:07.908Z,18.15
2022-11-26T02:37:42.304Z,20.87
2022-11-26T02:40:12.162Z,17.40
2022-11-26T02:42:39.590Z,19.13
2022-11-26T02:45:11.599Z,17.45
2022-11-26T02:47:44.744Z,18.02
2022-11-26T02:50:22.338Z,20.97
2022-11-26T02:52:53.071Z,21.58
2022-11-26T02:55:25.113Z,17.35
2022-11-26T02:57:52.776Z,16.77
2022-11-26T03:00:20.939Z,19.48
2022-11-26T03:02:54.362Z,21.75
2022-11-26T03:05:26.339Z,18.17
2022-11-26T03:07:55.250Z,16.63
2022-11-26T03:10:27.796Z,18.23
2022-11-26T03:12:57.625Z,17.52
2022-11-26T03:15:27.980Z,17.95
2022-11-26T03:17:57.926Z,19.80
2022-11-26T03:20:25.041Z,18.02
2022-11-26T03:22:52.384Z,16.65
2022-11-26T03:25:19.495Z,18.15
2022-11-26T03:27:46.931Z,16.25
2022-11-26T03:30:16.664Z,15.02
2022-11-26T03:32:43.942Z,17.42
2022-11-26T03:35:15.692Z,17.08
2022-11-26T03:37:45.263Z,14.98
2022-11-26T03:40:12.652Z,16.70
2022-11-26T03:42:42.495Z,16.13
2022-11-26T03:45:10.032Z,16.67
2022-11-26T03:47:37.613Z,17.20
2022-11-26T03:50:08.477Z,15.52
2022-11-26T03:52:35.781Z,15.70
2022-11-26T03:55:05.962Z,15.75
2022-11-26T03:57:37.904Z,16.10
2022-11-26T04:00:06.326Z,15.93
2022-11-26T04:02:36.395Z,15.63
2022-11-26T04:05:04.503Z,14.55
2022-11-26T04:07:34.507Z,14.68
2022-11-26T04:10:01.583Z,14.18
2022-11-26T04:12:31.442Z,17.20
2022-11-26T04:14:58.618Z,17.63
2022-11-26T04:17:28.412Z,16.25
2022-11-26T04:19:55.424Z,16.73
2022-11-26T04:22:24.971Z,17.33
2022-11-26T04:24:54.356Z,17.27
2022-11-26T04:27:21.667Z,15.88
2022-11-26T04:29:48.660Z,16.20
2022-11-26T04:32:16.220Z,14.88
2022-11-26T04:34:43.286Z,14.55
2022-11-26T04:37:10.612Z,13.50
2022-11-26T04:39:37.824Z,14.35
2022-11-26T04:42:07.862Z,13.45
2022-11-26T04:44:34.856Z,14.25
2022-11-26T04:47:02.370Z,12.60
2022-11-26T04:49:29.466Z,15.85
2022-11-26T04:51:57.154Z,12.60
2022-11-26T04:54:26.520Z,13.20
2022-11-26T04:56:53.857Z,13.30
2022-11-26T04:59:20.870Z,12.90
2022-11-26T05:01:50.622Z,13.43
2022-11-26T05:04:17.745Z,13.43
2022-11-26T05:06:45.309Z,15.85
2022-11-26T05:09:12.780Z,12.50
2022-11-26T05:11:42.304Z,14.32
2022-11-26T05:14:09.260Z,12.95
2022-11-26T05:16:36.689Z,10.00
2022-11-26T05:19:04.020Z,10.57
2022-11-26T05:21:33.780Z,11.00
2022-11-26T05:24:00.880Z,8.00
2022-11-26T05:26:28.216Z,10.38
2022-11-26T05:28:57.546Z,8.43
2022-11-26T05:31:25.147Z,10.02
2022-11-26T05:33:54.620Z,9.95
2022-11-26T05:36:24.446Z,7.72
2022-11-26T05:38:51.577Z,11.07
2022-11-26T05:41:18.968Z,8.30
2022-11-26T05:43:48.286Z,11.13
2022-11-26T05:46:17.990Z,10.20
2022-11-26T05:48:47.848Z,10.65
2022-11-26T05:51:17.596Z,11.48
2022-11-26T05:53:44.786Z,10.38
2022-11-26T05:56:14.345Z,10.93
2022-11-26T05:58:43.313Z,12.65
2022-11-26T06:01:12.998Z,12.43
2022-11-26T06:03:44.773Z,14.10
2022-11-26T06:06:12.153Z,12.63
2022-11-26T06:08:39.164Z,13.13
2022-11-26T06:11:06.686Z,10.98
2022-11-26T06:13:38.412Z,12.60
2022-11-26T06:16:06.131Z,11.90
2022-11-26T06:18:36.208Z,11.50
2022-11-26T06:21:05.480Z,11.82
2022-11-26T06:23:33.522Z,12.38
2022-11-26T06:26:08.584Z,10.93
2022-11-26T06:28:35.672Z,11.18
2022-11-26T06:31:03.074Z,11.88
2022-11-26T06:33:30.545Z,14.95
2022-11-26T06:36:01.195Z,15.52
2022-11-26T06:38:28.665Z,15.52
2022-11-26T06:41:06.868Z,17.38
2022-11-26T06:43:36.641Z,17.02
2022-11-26T06:46:09.934Z,18.92
2022-11-26T06:48:40.231Z,15.48
2022-11-26T06:51:16.305Z,16.63
2022-11-26T06:53:45.868Z,16.67
2022-11-26T06:56:19.204Z,18.50
2022-11-26T07:01:19.595Z,19.55
2022-11-26T07:03:47.261Z,15.95
2022-11-26T07:06:18.531Z,19.88
2022-11-26T07:08:45.818Z,18.90
2022-11-26T07:11:13.707Z,19.42
2022-11-26T07:13:43.234Z,17.15
2022-11-26T07:16:10.714Z,19.35
2022-11-26T07:18:38.148Z,19.08
2022-11-26T07:21:08.499Z,16.58
2022-11-26T07:23:35.643Z,17.80
2022-11-26T07:26:04.523Z,19.20
2022-11-26T07:28:34.830Z,20.42
2022-11-26T07:31:11.536Z,18.35
2022-11-26T07:33:42.151Z,18.42
2022-11-26T07:36:19.483Z,19.23
2022-11-26T07:38:47.686Z,21.15
2022-11-26T07:41:17.731Z,19.65
2022-11-26T07:43:45.562Z,17.70
2022-11-26T07:46:15.597Z,17.05
2022-11-26T07:48:42.911Z,20.77
2022-11-26T07:51:36.580Z,17.35
2022-11-26T07:54:08.372Z,17.30
2022-11-26T07:56:38.710Z,18.52
2022-11-26T07:59:05.788Z,19.50
2022-11-26T08:01:36.469Z,17.75
2022-11-26T08:04:07.041Z,18.00
2022-11-26T08:06:34.406Z,18.25
2022-11-26T08:09:02.677Z,21.00
2022-11-26T08:11:34.196Z,21.13
2022-11-26T08:14:10.363Z,16.90
2022-11-26T08:16:40.968Z,15.55
2022-11-26T08:19:13.515Z,17.17
2022-11-26T08:21:41.457Z,17.17
2022-11-26T08:24:12.731Z,18.23
2022-11-26T08:26:44.414Z,14.82
2022-11-26T08:29:12.926Z,15.38
2022-11-26T08:31:46.015Z,18.20
2022-11-26T08:34:15.590Z,16.92
2022-11-26T08:36:43.446Z,19.38
2022-11-26T08:39:15.578Z,17.73
2022-11-26T08:41:51.656Z,15.32
2022-11-26T08:44:19.569Z,17.33
2022-11-26T08:46:46.905Z,18.83
2022-11-26T08:49:16.730Z,15.98
2022-11-26T08:51:44.734Z,17.33
2022-11-26T08:54:14.260Z,17.33
2022-11-26T08:56:41.559Z,16.75
2022-11-26T08:59:10.840Z,18.85
2022-11-26T09:01:38.195Z,15.40
2022-11-26T09:04:08.135Z,16.23
2022-11-26T09:06:38.471Z,16.80
2022-11-26T09:09:08.627Z,15.00
2022-11-26T09:11:39.639Z,20.67
2022-11-26T09:14:06.844Z,17.60
2022-11-26T09:16:34.237Z,20.25
2022-11-26T09:19:02.485Z,14.73
2022-11-26T09:21:32.932Z,13.23
2022-11-26T09:24:00.091Z,13.23
2022-11-26T09:26:33.865Z,14.27
2022-11-26T09:29:01.377Z,14.00
2022-11-26T09:31:28.945Z,14.10
2022-11-26T09:34:00.274Z,13.32
2022-11-26T09:36:27.633Z,15.27
2022-11-26T09:38:59.139Z,13.10
2022-11-26T09:41:38.805Z,12.82
2022-11-26T09:44:35.193Z,16.27
2022-11-26T09:47:12.773Z,12.07
2022-11-26T09:49:59.330Z,11.43
2022-11-26T09:52:30.778Z,11.68
2022-11-26T09:55:08.545Z,9.18
2022-11-26T09:57:40.436Z,11.13
2022-11-26T10:00:22.835Z,12.98
2022-11-26T10:02:53.127Z,14.25
2022-11-26T10:05:24.926Z,12.45
2022-11-26T10:07:55.113Z,11.75
2022-11-26T10:10:43.476Z,9.88
2022-11-26T10:13:45.860Z,11.90
2022-11-26T10:16:29.453Z,12.50
2022-11-26T10:19:13.462Z,12.63
2022-11-26T10:21:58.732Z,11.73
2022-11-26T10:24:40.129Z,12.18
2022-11-26T10:27:15.562Z,10.73
2022-11-26T10:29:49.939Z,20.88
2022-11-26T10:32:21.269Z,18.70
2022-11-26T10:34:50.539Z,17.80
2022-11-26T10:37:20.557Z,16.48
2022-11-26T10:39:48.732Z,15.80
2022-11-26T10:42:21.402Z,14.13
2022-11-26T10:44:52.902Z,9.38
2022-11-26T10:47:30.149Z,14.13
2022-11-26T10:50:19.106Z,13.15
2022-11-26T10:52:52.812Z,17.75
2022-11-26T10:55:43.544Z,13.13
2022-11-26T10:58:22.789Z,14.32
2022-11-26T11:00:50.172Z,14.65
2022-11-26T11:03:59.841Z,14.70
2022-11-26T11:06:19.865Z,14.43
2022-11-26T11:08:49.711Z,12.35
2022-11-26T11:11:26.017Z,12.68
2022-11-26T11:13:53.914Z,14.30
2022-11-26T11:16:25.712Z,11.45
2022-11-26T11:19:04.505Z,9.90
2022-11-26T11:21:37.383Z,8.88
2022-11-26T11:24:14.841Z,8.55
2022-11-26T11:26:47.959Z,7.75
2022-11-26T11:29:32.782Z,7.97
2022-11-26T11:32:02.401Z,7.47
2022-11-26T11:34:39.308Z,8.25
2022-11-26T11:37:17.238Z,6.72
2022-11-26T11:39:45.017Z,9.15
2022-11-26T11:42:25.744Z,8.50
2022-11-26T11:44:53.380Z,7.65
2022-11-26T11:47:46.639Z,9.68
2022-11-26T11:50:17.377Z,10.23
2022-11-26T11:52:47.464Z,10.15
2022-11-26T11:55:33.780Z,9.73
2022-11-26T11:58:25.848Z,9.90
2022-11-26T12:01:12.597Z,6.80
2022-11-26T12:04:21.390Z,7.93
2022-11-26T12:06:54.368Z,5.93
2022-11-26T12:09:39.604Z,9.63
2022-11-26T12:12:12.946Z,6.18
2022-11-26T12:14:51.734Z,6.47
2022-11-26T12:17:43.513Z,6.13
2022-11-26T12:20:40.015Z,7.53
2022-11-26T12:23:23.030Z,5.63
2022-11-26T12:26:06.886Z,6.00
2022-11-26T12:28:40.974Z,5.93
2022-11-26T12:31:19.684Z,5.22
2022-11-26T12:33:53.422Z,8.13
2022-11-26T12:36:26.579Z,10.10
2022-11-26T12:38:57.521Z,8.73
2022-11-26T12:41:43.676Z,9.85
2022-11-26T12:44:19.962Z,9.27
2022-11-26T12:47:24.623Z,11.57
2022-11-26T12:49:58.111Z,11.80
2022-11-26T12:52:50.034Z,8.93
2022-11-26T12:55:49.938Z,10.55
2022-11-26T12:58:27.221Z,9.90
2022-11-26T13:00:58.631Z,9.07
2022-11-26T13:03:31.291Z,8.40
2022-11-26T13:06:16.871Z,9.93
2022-11-26T13:08:53.119Z,8.35
2022-11-26T13:11:35.091Z,11.02
2022-11-26T13:14:14.372Z,9.90
2022-11-26T13:17:11.260Z,11.40
2022-11-26T13:19:46.823Z,14.15
2022-11-26T13:22:52.373Z,10.85
2022-11-26T13:25:28.773Z,9.88
2022-11-26T13:28:17.548Z,9.38
2022-11-26T13:31:18.205Z,11.38
2022-11-26T13:34:04.057Z,8.73
2022-11-26T13:36:52.997Z,9.40
2022-11-26T13:39:44.659Z,10.40
2022-11-26T13:42:35.985Z,11.45
2022-11-26T13:45:06.596Z,11.20
2022-11-26T13:47:49.731Z,9.85
2022-11-26T13:50:32.143Z,12.90
2022-11-26T13:53:26.991Z,12.90
2022-11-26T13:56:00.427Z,11.32
2022-11-26T13:58:36.118Z,12.75
2022-11-26T14:01:32.879Z,12.85
2022-11-26T14:04:00.458Z,12.13
2022-11-26T14:06:30.225Z,12.43
2022-11-26T14:09:00.526Z,14.50
2022-11-26T14:11:45.645Z,13.55
2022-11-26T14:14:25.274Z,16.63
2022-11-26T14:17:01.334Z,12.82
2022-11-26T14:19:40.913Z,13.95
2022-11-26T14:22:16.971Z,12.02
2022-11-26T14:24:50.728Z,7.63
2022-11-26T14:27:20.798Z,5.47
2022-11-26T14:30:08.831Z,5.82
2022-11-26T14:32:48.012Z,3.85
2022-11-26T14:35:29.227Z,5.10
2022-11-26T14:38:00.834Z,3.20
2022-11-26T14:40:37.457Z,2.25
2022-11-26T14:43:07.321Z,2.35
2022-11-26T14:45:37.390Z,4.93
2022-11-26T14:48:14.880Z,7.70
2022-11-26T14:50:43.050Z,3.15
2022-11-26T14:53:12.142Z,3.88
2022-11-26T14:55:39.699Z,5.60
2022-11-26T14:58:34.732Z,3.78
2022-11-26T15:01:03.494Z,2.72
2022-11-26T15:03:30.772Z,3.93
2022-11-26T15:05:58.176Z,2.20
2022-11-26T15:08:29.546Z,8.80
2022-11-26T15:11:03.703Z,4.80
2022-11-26T15:13:45.028Z,3.70
2022-11-26T15:16:31.240Z,2.42
2022-11-26T15:18:59.341Z,3.65
2022-11-26T15:21:28.103Z,5.40
2022-11-26T15:23:59.349Z,3.67
2022-11-26T15:26:33.483Z,3.30
2022-11-26T15:29:00.888Z,4.18
2022-11-26T15:31:54.593Z,4.25
2022-11-26T15:34:23.909Z,5.17
2022-11-26T15:36:53.872Z,5.82
2022-11-26T15:39:30.724Z,6.07
2022-11-26T15:42:05.822Z,6.70
2022-11-26T15:44:42.386Z,6.80
2022-11-26T15:47:20.354Z,9.68
2022-11-26T15:49:51.439Z,8.02
2022-11-26T15:52:22.972Z,9.27
2022-11-26T15:55:15.994Z,9.60
2022-11-26T15:57:44.511Z,9.98
2022-11-26T16:00:35.808Z,14.43
2022-11-26T16:03:04.259Z,17.48
2022-11-26T16:05:37.085Z,16.52
2022-11-26T16:08:30.743Z,14.40
2022-11-26T16:11:05.306Z,22.17
2022-11-26T16:13:33.770Z,16.58
2022-11-26T16:16:03.922Z,14.45
2022-11-26T16:18:38.059Z,17.50
2022-11-26T16:21:22.228Z,20.55
2022-11-26T16:24:02.076Z,24.73
2022-11-26T16:26:29.733Z,17.77
2022-11-26T16:28:59.447Z,21.90
2022-11-26T16:31:26.780Z,20.77
2022-11-26T16:33:56.461Z,21.25
2022-11-26T16:36:26.527Z,19.00
2022-11-26T16:38:56.428Z,22.13
2022-11-26T16:41:23.636Z,18.10
2022-11-26T16:43:50.965Z,18.33
2022-11-26T16:46:23.951Z,16.55
2022-11-26T16:48:53.745Z,18.92
2022-11-26T16:51:21.658Z,17.15
2022-11-26T16:53:49.461Z,16.55
2022-11-26T16:56:32.545Z,15.95
2022-11-26T16:59:00.246Z,18.83
2022-11-26T17:01:27.505Z,14.07
2022-11-26T17:03:57.360Z,20.05
2022-11-26T17:06:33.767Z,17.55
2022-11-26T17:09:03.963Z,13.57
2022-11-26T17:11:33.434Z,15.75
2022-11-26T17:14:03.644Z,16.70
2022-11-26T17:16:35.269Z,13.70
2022-11-26T17:19:05.012Z,18.13
2022-11-26T17:21:36.821Z,14.95
2022-11-26T17:24:04.472Z,22.20
2022-11-26T17:26:31.529Z,21.20
2022-11-26T17:28:58.857Z,17.58
2022-11-26T17:31:26.214Z,17.13
2022-11-26T17:33:53.644Z,13.45
2022-11-26T17:36:22.807Z,14.65
2022-11-26T17:38:51.150Z,17.15
2022-11-26T17:41:18.347Z,19.55
2022-11-26T17:43:46.003Z,17.40
2022-11-26T17:46:16.289Z,17.38
2022-11-26T17:48:44.102Z,15.55
2022-11-26T17:51:13.081Z,16.55
2022-11-26T17:53:41.337Z,15.15
2022-11-26T17:56:22.785Z,21.83
2022-11-26T17:58:52.885Z,15.88
2022-11-26T18:01:19.974Z,14.02
2022-11-26T18:03:47.598Z,14.30
2022-11-26T18:06:17.288Z,17.00
2022-11-26T18:08:49.478Z,15.38
2022-11-26T18:11:18.723Z,16.20
2022-11-26T18:13:46.039Z,13.75
2022-11-26T18:16:13.071Z,16.35
2022-11-26T18:18:40.701Z,16.45
2022-11-26T18:21:07.833Z,14.77
2022-11-26T18:23:35.323Z,18.70
2022-11-26T18:26:02.523Z,15.27
2022-11-26T18:28:32.024Z,16.15
2022-11-26T18:30:59.173Z,17.88
2022-11-26T18:33:26.860Z,16.38
2022-11-26T18:35:56.364Z,19.90
2022-11-26T18:38:23.733Z,16.73
2022-11-26T18:40:59.787Z,15.10
2022-11-26T18:43:30.119Z,17.67
2022-11-26T18:46:01.194Z,20.70
2022-11-26T18:48:28.676Z,13.07
2022-11-26T18:50:57.276Z,16.27
2022-11-26T18:53:28.033Z,17.60
2022-11-26T18:55:56.145Z,17.50
2022-11-26T18:58:26.043Z,15.88
2022-11-26T19:00:54.233Z,16.85
2022-11-26T19:03:21.576Z,16.75
2022-11-26T19:05:51.823Z,15.85
2022-11-26T19:08:20.028Z,15.27
2022-11-26T19:10:47.463Z,17.42
2022-11-26T19:13:15.513Z,18.65
2022-11-26T19:15:43.967Z,17.50
2022-11-26T19:18:14.958Z,15.52
2022-11-26T19:20:49.995Z,13.40
2022-11-26T19:23:21.166Z,12.15
2022-11-26T19:25:48.334Z,34.55
2022-11-26T19:28:15.608Z,18.25
2022-11-26T19:30:42.744Z,19.05
2022-11-26T19:33:10.121Z,18.95
2022-11-26T19:35:40.370Z,17.80
2022-11-26T19:38:07.690Z,19.58
2022-11-26T19:40:38.834Z,17.98
2022-11-26T19:43:06.163Z,23.00
2022-11-26T19:45:35.827Z,21.58
2022-11-26T19:48:03.281Z,17.50
2022-11-26T19:50:30.341Z,21.05
2022-11-26T19:53:00.223Z,19.38
2022-11-26T19:55:27.259Z,18.00
2022-11-26T19:57:54.557Z,17.98
2022-11-26T20:00:21.749Z,16.02
2022-11-26T20:02:52.007Z,14.25
2022-11-26T20:05:19.229Z,16.77
2022-11-26T20:07:46.719Z,16.73
2022-11-26T20:10:13.767Z,15.77
2022-11-26T20:12:53.352Z,16.17
2022-11-26T20:15:20.329Z,15.65
2022-11-26T20:17:47.872Z,15.25
2022-11-26T20:20:15.144Z,16.98
2022-11-26T20:22:42.429Z,17.67
2022-11-26T20:25:09.786Z,18.35
2022-11-26T20:27:37.683Z,15.20
2022-11-26T20:30:05.182Z,13.07
2022-11-26T20:32:32.492Z,15.10
2022-11-26T20:34:59.706Z,17.15
2022-11-26T20:37:27.197Z,17.17
2022-11-26T20:39:54.216Z,17.70
2022-11-26T20:42:21.757Z,21.58
2022-11-26T20:44:48.861Z,17.77
2022-11-26T20:47:16.240Z,15.70
2022-11-26T20:49:43.552Z,18.90
2022-11-26T20:52:11.091Z,15.23
2022-11-26T20:54:38.308Z,16.80
2022-11-26T20:57:07.933Z,19.05
2022-11-26T20:59:37.753Z,17.92
2022-11-26T21:02:05.513Z,14.05
2022-11-26T21:04:33.097Z,22.30
2022-11-26T21:07:02.697Z,16.75
2022-11-26T21:09:29.835Z,17.90
2022-11-26T21:11:57.749Z,17.45
2022-11-26T21:14:24.781Z,16.60
2022-11-26T21:16:52.103Z,18.40
2022-11-26T21:19:19.522Z,19.75
2022-11-26T21:21:46.799Z,19.70
2022-11-26T21:24:16.085Z,19.48
2022-11-26T21:26:43.715Z,17.67
2022-11-26T21:29:10.970Z,16.73
2022-11-26T21:31:40.943Z,17.92
2022-11-26T21:34:10.494Z,16.60
2022-11-26T21:36:37.985Z,16.92
2022-11-26T21:39:05.765Z,16.25
2022-11-26T21:41:33.547Z,17.15
2022-11-26T21:44:00.966Z,16.98
2022-11-26T21:46:28.556Z,16.08
2022-11-26T21:48:57.233Z,17.35
2022-11-26T21:51:27.554Z,19.00
2022-11-26T21:53:56.449Z,14.57
2022-11-26T21:56:27.171Z,15.20
2022-11-26T21:58:56.561Z,17.83
2022-11-26T22:01:29.063Z,15.30
2022-11-26T22:03:59.055Z,15.00
2022-11-26T22:06:27.050Z,17.95
2022-11-26T22:08:54.197Z,17.40
2022-11-26T22:11:23.328Z,17.73
2022-11-26T22:13:50.842Z,15.45
2022-11-26T22:16:21.030Z,14.05
2022-11-26T22:18:50.153Z,14.48
2022-11-26T22:21:33.530Z,12.85
2022-11-26T22:24:02.646Z,12.88
2022-11-26T22:26:31.737Z,15.52
2022-11-26T22:29:03.710Z,17.65
2022-11-26T22:31:36.508Z,21.10
2022-11-26T22:34:07.157Z,16.48
2022-11-26T22:36:34.825Z,19.92
2022-11-26T22:39:03.740Z,19.75
2022-11-26T22:41:32.608Z,17.38
2022-11-26T22:43:59.922Z,20.85
2022-11-26T22:46:27.584Z,21.17
2022-11-26T22:49:03.804Z,21.20
2022-11-26T22:51:33.314Z,24.02
2022-11-26T22:54:02.660Z,20.60
2022-11-26T22:56:31.252Z,22.92
2022-11-26T22:59:01.471Z,23.65
2022-11-26T23:01:31.827Z,19.27
2022-11-26T23:04:01.158Z,22.95
2022-11-26T23:06:33.348Z,20.17
2022-11-26T23:09:02.958Z,24.00
2022-11-26T23:11:36.518Z,19.20
2022-11-26T23:14:04.324Z,22.02
2022-11-26T23:16:31.793Z,18.55
2022-11-26T23:18:59.335Z,20.40
2022-11-26T23:21:31.527Z,19.02
2022-11-26T23:23:58.776Z,17.50
2022-11-26T23:26:28.435Z,22.08
2022-11-26T23:29:00.065Z,28.33
2022-11-26T23:31:33.192Z,24.38
2022-11-26T23:34:01.114Z,24.23
2022-11-26T23:36:29.430Z,28.75
2022-11-26T23:39:00.466Z,27.40
2022-11-26T23:41:28.062Z,28.25
2022-11-26T23:43:55.529Z,24.17
2022-11-26T23:46:25.464Z,23.55
2022-11-26T23:48:53.315Z,22.88
2022-11-26T23:51:27.024Z,22.27
2022-11-26T23:53:54.611Z,22.88
2022-11-26T23:56:24.997Z,23.98
2022-11-26T23:58:54.514Z,19.80
